createdAt,value
2023-09-16T00:00:42.042Z,99812.91
2023-09-16T00:02:44.984Z,99803.94
2023-09-16T00:04:48.218Z,99802.53
2023-09-16T00:06:51.815Z,99806.94
2023-09-16T00:08:54.581Z,99803.81
2023-09-16T00:10:57.307Z,99799.19
2023-09-16T00:13:02.261Z,99800.94
2023-09-16T00:15:05.975Z,99795.94
2023-09-16T00:17:10.379Z,99805.09
2023-09-16T00:19:14.134Z,99798.72
2023-09-16T00:21:17.513Z,99799.88
2023-09-16T00:23:20.169Z,99795.97
2023-09-16T00:25:22.917Z,99799.97
2023-09-16T00:27:26.886Z,99802.50
2023-09-16T00:29:29.611Z,99801.00
2023-09-16T00:31:32.344Z,99804.47
2023-09-16T00:33:35.234Z,99809.91
2023-09-16T00:35:37.993Z,99796.31
2023-09-16T00:37:40.843Z,99801.06
2023-09-16T00:39:43.598Z,99801.53
2023-09-16T00:41:46.286Z,99803.69
2023-09-16T00:43:48.973Z,99805.75
2023-09-16T00:45:51.733Z,99801.84
2023-09-16T00:47:54.567Z,99807.94
2023-09-16T00:49:58.652Z,99811.13
2023-09-16T00:52:01.661Z,99811.84
2023-09-16T00:54:04.459Z,99812.75
2023-09-16T00:56:08.500Z,99814.66
2023-09-16T00:58:12.692Z,99819.47
2023-09-16T01:00:17.902Z,99818.59
2023-09-16T01:02:21.220Z,99820.50
2023-09-16T01:04:24.235Z,99831.63
2023-09-16T01:06:27.444Z,99824.53
2023-09-16T01:08:30.614Z,99822.16
2023-09-16T01:10:34.037Z,99823.84
2023-09-16T01:12:36.799Z,99816.91
2023-09-16T01:14:39.600Z,99829.28
2023-09-16T01:16:48.152Z,99822.31
2023-09-16T01:18:55.556Z,99823.66
2023-09-16T01:20:59.740Z,99834.41
2023-09-16T01:23:02.550Z,99828.72
2023-09-16T01:25:09.745Z,99829.72
2023-09-16T01:27:12.458Z,99831.50
2023-09-16T01:29:17.323Z,99836.22
2023-09-16T01:31:20.149Z,99832.19
2023-09-16T01:33:28.729Z,99835.25
2023-09-16T01:35:36.925Z,99829.59
2023-09-16T01:37:43.284Z,99834.63
2023-09-16T01:39:54.886Z,99830.91
2023-09-16T01:41:59.898Z,99833.19
2023-09-16T01:44:04.352Z,99836.00
2023-09-16T01:46:10.216Z,99839.06
2023-09-16T01:48:13.167Z,99845.25
2023-09-16T01:50:15.940Z,99843.16
2023-09-16T01:52:18.696Z,99825.00
2023-09-16T01:54:21.350Z,99839.28
2023-09-16T01:56:24.095Z,99833.63
2023-09-16T01:58:28.026Z,99840.94
2023-09-16T02:00:30.736Z,99837.19
2023-09-16T02:02:33.540Z,99841.44
2023-09-16T02:04:37.796Z,99841.28
2023-09-16T02:06:42.821Z,99831.69
2023-09-16T02:08:47.939Z,99845.03
2023-09-16T02:10:50.851Z,99837.38
2023-09-16T02:12:53.943Z,99840.50
2023-09-16T02:14:56.795Z,99845.81
2023-09-16T02:16:59.686Z,99847.28
2023-09-16T02:19:02.576Z,99838.53
2023-09-16T02:21:05.477Z,99847.47
2023-09-16T02:23:09.377Z,99851.03
2023-09-16T02:25:12.068Z,99854.09
2023-09-16T02:27:14.883Z,99839.03
2023-09-16T02:29:17.563Z,99840.19
2023-09-16T02:31:20.224Z,99848.44
2023-09-16T02:33:22.925Z,99836.44
2023-09-16T02:35:25.768Z,99838.09
2023-09-16T02:37:28.394Z,99839.69
2023-09-16T02:39:31.141Z,99836.13
2023-09-16T02:41:33.806Z,99842.44
2023-09-16T02:43:36.561Z,99845.69
2023-09-16T02:45:42.587Z,99843.72
2023-09-16T02:47:45.455Z,99840.66
2023-09-16T02:49:48.550Z,99840.81
2023-09-16T02:51:51.517Z,99845.34
2023-09-16T02:53:57.192Z,99838.72
2023-09-16T02:56:00.904Z,99845.50
2023-09-16T02:58:04.483Z,99839.66
2023-09-16T03:00:08.806Z,99839.03
2023-09-16T03:02:11.551Z,99835.59
2023-09-16T03:04:14.298Z,99840.94
2023-09-16T03:06:17.094Z,99840.31
2023-09-16T03:08:21.355Z,99836.88
2023-09-16T03:10:24.103Z,99842.53
2023-09-16T03:12:26.952Z,99837.19
2023-09-16T03:14:31.498Z,99844.59
2023-09-16T03:16:35.555Z,99837.63
2023-09-16T03:18:38.360Z,99838.59
2023-09-16T03:20:41.152Z,99847.34
2023-09-16T03:22:43.827Z,99844.75
2023-09-16T03:24:46.553Z,99835.50
2023-09-16T03:26:49.661Z,99846.47
2023-09-16T03:28:54.987Z,99839.31
2023-09-16T03:30:57.703Z,99843.66
2023-09-16T03:33:00.466Z,99847.06
2023-09-16T03:35:03.207Z,99842.84
2023-09-16T03:37:07.423Z,99845.88
2023-09-16T03:39:10.133Z,99852.34
2023-09-16T03:41:12.751Z,99853.63
2023-09-16T03:43:15.887Z,99853.63
2023-09-16T03:45:28.551Z,99854.13
2023-09-16T03:47:32.654Z,99850.22
2023-09-16T03:49:35.313Z,99849.56
2023-09-16T03:51:39.223Z,99844.66
2023-09-16T03:53:42.063Z,99854.84
2023-09-16T03:55:45.163Z,99853.16
2023-09-16T03:57:47.865Z,99853.91
2023-09-16T03:59:50.707Z,99847.19
2023-09-16T04:01:53.513Z,99847.94
2023-09-16T04:03:56.541Z,99854.31
2023-09-16T04:06:00.352Z,99851.16
2023-09-16T04:08:03.199Z,99848.31
2023-09-16T04:10:06.377Z,99849.03
2023-09-16T04:12:09.369Z,99848.50
2023-09-16T04:14:12.165Z,99855.47
2023-09-16T04:16:15.336Z,99850.50
2023-09-16T04:18:19.466Z,99857.47
2023-09-16T04:20:22.141Z,99849.28
2023-09-16T04:22:24.850Z,99856.22
2023-09-16T04:24:27.676Z,99857.59
2023-09-16T04:26:30.417Z,99860.63
2023-09-16T04:28:33.226Z,99856.00
2023-09-16T04:30:40.387Z,99860.19
2023-09-16T04:32:43.318Z,99855.22
2023-09-16T04:34:46.018Z,99862.97
2023-09-16T04:36:50.356Z,99857.22
2023-09-16T04:38:53.167Z,99846.84
2023-09-16T04:40:55.803Z,99857.22
2023-09-16T04:42:58.562Z,99860.22
2023-09-16T04:45:05.419Z,99860.91
2023-09-16T04:47:11.737Z,99860.47
2023-09-16T04:49:14.595Z,99860.31
2023-09-16T04:51:17.569Z,99859.19
2023-09-16T04:53:20.230Z,99863.91
2023-09-16T04:55:22.995Z,99859.84
2023-09-16T04:57:27.077Z,99865.72
2023-09-16T04:59:33.951Z,99867.53
2023-09-16T05:01:36.802Z,99870.16
2023-09-16T05:03:39.557Z,99866.44
2023-09-16T05:05:42.347Z,99864.69
2023-09-16T05:07:45.036Z,99871.56
2023-09-16T05:09:47.733Z,99874.13
2023-09-16T05:11:50.569Z,99873.06
2023-09-16T05:13:54.195Z,99871.28
2023-09-16T05:15:56.988Z,99866.03
2023-09-16T05:17:59.942Z,99867.47
2023-09-16T05:20:02.652Z,99865.00
2023-09-16T05:22:06.721Z,99863.22
2023-09-16T05:24:09.749Z,99871.84
2023-09-16T05:26:14.430Z,99868.44
2023-09-16T05:28:20.495Z,99864.19
2023-09-16T05:30:23.333Z,99869.88
2023-09-16T05:32:26.059Z,99859.66
2023-09-16T05:34:28.906Z,99860.53
2023-09-16T05:36:34.290Z,99864.19
2023-09-16T05:38:36.901Z,99866.69
2023-09-16T05:40:39.820Z,99861.69
2023-09-16T05:42:42.550Z,99864.19
2023-09-16T05:44:45.370Z,99861.88
2023-09-16T05:46:48.827Z,99862.31
2023-09-16T05:48:51.906Z,99865.97
2023-09-16T05:50:59.506Z,99870.81
2023-09-16T05:53:04.801Z,99864.97
2023-09-16T05:55:07.998Z,99862.75
2023-09-16T05:57:10.773Z,99868.84
2023-09-16T05:59:15.403Z,99859.41
2023-09-16T06:01:18.246Z,99868.72
2023-09-16T06:03:21.189Z,99865.63
2023-09-16T06:05:24.138Z,99859.06
2023-09-16T06:07:27.306Z,99857.59
2023-09-16T06:09:30.072Z,99863.75
2023-09-16T06:11:32.803Z,99859.53
2023-09-16T06:13:35.463Z,99864.41
2023-09-16T06:15:38.281Z,99864.56
2023-09-16T06:17:40.927Z,99869.84
2023-09-16T06:19:43.568Z,99866.81
2023-09-16T06:21:47.000Z,99862.13
2023-09-16T06:23:49.768Z,99869.47
2023-09-16T06:25:52.654Z,99872.41
2023-09-16T06:27:56.231Z,99868.50
2023-09-16T06:29:59.001Z,99865.09
2023-09-16T06:32:11.864Z,99870.03
2023-09-16T06:34:23.404Z,99869.44
2023-09-16T06:36:27.656Z,99864.88
2023-09-16T06:38:30.298Z,99865.03
2023-09-16T06:40:33.066Z,99866.81
2023-09-16T06:42:35.825Z,99862.56
2023-09-16T06:44:38.511Z,99868.28
2023-09-16T06:46:42.341Z,99868.41
2023-09-16T06:48:46.801Z,99860.97
2023-09-16T06:50:51.660Z,99873.34
2023-09-16T06:52:54.280Z,99871.41
2023-09-16T06:54:57.380Z,99875.84
2023-09-16T06:57:01.493Z,99876.78
2023-09-16T06:59:04.302Z,99876.03
2023-09-16T07:01:14.181Z,99868.53
2023-09-16T07:03:17.264Z,99873.38
2023-09-16T07:05:20.088Z,99870.63
2023-09-16T07:07:25.168Z,99868.34
2023-09-16T07:09:27.898Z,99873.22
2023-09-16T07:11:30.684Z,99875.63
2023-09-16T07:13:33.330Z,99872.53
2023-09-16T07:15:37.145Z,99874.63
2023-09-16T07:17:40.110Z,99876.31
2023-09-16T07:19:42.919Z,99877.19
2023-09-16T07:21:45.681Z,99869.22
2023-09-16T07:23:48.644Z,99870.06
2023-09-16T07:25:58.776Z,99873.72
2023-09-16T07:28:04.381Z,99881.75
2023-09-16T07:30:07.754Z,99875.44
2023-09-16T07:32:10.584Z,99873.88
2023-09-16T07:34:13.326Z,99873.50
2023-09-16T07:36:16.417Z,99881.13
2023-09-16T07:38:19.193Z,99869.16
2023-09-16T07:40:21.991Z,99879.25
2023-09-16T07:42:24.883Z,99878.47
2023-09-16T07:44:28.063Z,99877.72
2023-09-16T07:46:30.896Z,99881.78
2023-09-16T07:48:34.024Z,99880.63
2023-09-16T07:50:39.949Z,99880.28
2023-09-16T07:52:48.254Z,99878.75
2023-09-16T07:55:05.850Z,99884.38
2023-09-16T07:57:12.799Z,99878.41
2023-09-16T07:59:23.778Z,99880.00
2023-09-16T08:01:31.081Z,99880.47
2023-09-16T08:03:34.702Z,99886.91
2023-09-16T08:05:37.629Z,99883.75
2023-09-16T08:07:40.344Z,99888.09
2023-09-16T08:09:43.115Z,99879.63
2023-09-16T08:11:45.909Z,99881.75
2023-09-16T08:13:49.268Z,99882.25
2023-09-16T08:15:52.082Z,99887.94
2023-09-16T08:17:55.877Z,99882.81
2023-09-16T08:19:58.571Z,99886.91
2023-09-16T08:22:01.392Z,99887.78
2023-09-16T08:24:04.343Z,99889.78
2023-09-16T08:26:07.100Z,99896.25
2023-09-16T08:28:11.161Z,99890.19
2023-09-16T08:30:14.091Z,99890.25
2023-09-16T08:32:17.396Z,99893.47
2023-09-16T08:34:20.320Z,99888.63
2023-09-16T08:36:23.996Z,99889.03
2023-09-16T08:38:26.889Z,99889.47
2023-09-16T08:40:33.819Z,99893.09
2023-09-16T08:42:43.350Z,99889.91
2023-09-16T08:44:52.648Z,99891.09
2023-09-16T08:47:16.789Z,99889.94
2023-09-16T08:49:21.290Z,99896.34
2023-09-16T08:51:26.158Z,99890.75
2023-09-16T08:53:31.934Z,99885.19
2023-09-16T08:55:37.894Z,99886.41
2023-09-16T08:57:46.893Z,99889.63
2023-09-16T08:59:52.021Z,99889.63
2023-09-16T09:01:54.925Z,99881.63
2023-09-16T09:04:00.049Z,99884.44
2023-09-16T09:06:05.127Z,99884.06
2023-09-16T09:08:12.011Z,99889.25
2023-09-16T09:10:14.953Z,99878.44
2023-09-16T09:12:18.114Z,99875.25
2023-09-16T09:14:23.484Z,99880.06
2023-09-16T09:16:28.330Z,99877.28
2023-09-16T09:18:34.650Z,99877.66
2023-09-16T09:20:38.439Z,99880.06
2023-09-16T09:22:41.991Z,99885.28
2023-09-16T09:24:44.853Z,99876.84
2023-09-16T09:26:47.620Z,99876.84
2023-09-16T09:28:50.736Z,99878.47
2023-09-16T09:30:54.129Z,99876.84
2023-09-16T09:32:58.036Z,99874.88
2023-09-16T09:35:10.234Z,99870.84
2023-09-16T09:37:17.931Z,99871.25
2023-09-16T09:39:21.118Z,99876.03
2023-09-16T09:41:23.850Z,99867.59
2023-09-16T09:43:30.523Z,99870.03
2023-09-16T09:45:42.840Z,99858.75
2023-09-16T09:47:47.029Z,99863.19
2023-09-16T09:49:50.022Z,99870.81
2023-09-16T09:51:52.938Z,99871.22
2023-09-16T09:53:55.929Z,99866.03
2023-09-16T09:55:58.855Z,99860.41
2023-09-16T09:58:02.076Z,99863.63
2023-09-16T10:00:06.422Z,99871.28
2023-09-16T10:02:10.203Z,99866.41
2023-09-16T10:04:13.972Z,99868.44
2023-09-16T10:06:18.589Z,99867.22
2023-09-16T10:08:22.798Z,99873.66
2023-09-16T10:10:26.789Z,99867.59
2023-09-16T10:12:30.687Z,99870.44
2023-09-16T10:14:34.878Z,99869.63
2023-09-16T10:16:39.045Z,99865.59
2023-09-16T10:18:42.771Z,99866.81
2023-09-16T10:20:45.522Z,99867.22
2023-09-16T10:22:48.514Z,99865.22
2023-09-16T10:24:51.394Z,99869.25
2023-09-16T10:26:56.412Z,99869.25
2023-09-16T10:29:01.210Z,99875.66
2023-09-16T10:31:04.641Z,99867.63
2023-09-16T10:33:12.500Z,99861.19
2023-09-16T10:35:15.654Z,99864.38
2023-09-16T10:37:21.427Z,99871.50
2023-09-16T10:39:25.227Z,99863.03
2023-09-16T10:41:28.646Z,99863.81
2023-09-16T10:43:33.908Z,99867.03
2023-09-16T10:45:38.995Z,99864.16
2023-09-16T10:47:42.927Z,99858.91
2023-09-16T10:49:46.600Z,99864.56
2023-09-16T10:51:52.599Z,99861.75
2023-09-16T10:54:11.594Z,99854.88
2023-09-16T10:56:31.015Z,99856.78
2023-09-16T10:58:37.155Z,99863.09
2023-09-16T11:00:55.384Z,99861.13
2023-09-16T11:03:01.396Z,99861.19
2023-09-16T11:05:06.541Z,99857.63
2023-09-16T11:07:12.252Z,99854.31
2023-09-16T11:09:16.936Z,99855.34
2023-09-16T11:11:23.621Z,99857.03
2023-09-16T11:13:29.555Z,99845.00
2023-09-16T11:15:34.855Z,99851.78
2023-09-16T11:17:42.377Z,99848.59
2023-09-16T11:19:47.224Z,99842.44
2023-09-16T11:21:50.583Z,99848.13
2023-09-16T11:23:53.833Z,99842.88
2023-09-16T11:25:59.152Z,99844.41
2023-09-16T11:28:09.026Z,99837.53
2023-09-16T11:30:15.410Z,99841.78
2023-09-16T11:32:24.144Z,99838.09
2023-09-16T11:34:30.834Z,99844.66
2023-09-16T11:36:38.059Z,99835.88
2023-09-16T11:38:59.545Z,99834.38
2023-09-16T11:41:14.090Z,99834.78
2023-09-16T11:43:18.681Z,99830.06
2023-09-16T11:45:23.529Z,99827.47
2023-09-16T11:47:34.766Z,99830.09
2023-09-16T11:49:37.945Z,99824.22
2023-09-16T11:51:41.113Z,99826.75
2023-09-16T11:53:46.755Z,99826.34
2023-09-16T11:55:51.605Z,99826.84
2023-09-16T11:57:55.363Z,99828.34
2023-09-16T11:59:59.587Z,99829.53
2023-09-16T12:02:04.153Z,99827.03
2023-09-16T12:04:12.817Z,99820.75
2023-09-16T12:06:18.914Z,99830.53
2023-09-16T12:08:23.529Z,99825.78
2023-09-16T12:10:26.952Z,99819.25
2023-09-16T12:12:31.177Z,99822.56
2023-09-16T12:14:35.713Z,99817.84
2023-09-16T12:16:39.957Z,99815.81
2023-09-16T12:18:44.751Z,99817.06
2023-09-16T12:20:48.985Z,99818.72
2023-09-16T12:22:55.504Z,99810.94
2023-09-16T12:24:58.694Z,99803.34
2023-09-16T12:27:02.426Z,99816.66
2023-09-16T12:29:06.779Z,99810.38
2023-09-16T12:31:14.517Z,99805.78
2023-09-16T12:33:17.775Z,99800.13
2023-09-16T12:35:21.699Z,99818.72
2023-09-16T12:37:26.647Z,99811.50
2023-09-16T12:39:40.707Z,99815.59
2023-09-16T12:41:54.493Z,99808.63
2023-09-16T12:44:03.362Z,99815.63
2023-09-16T12:46:09.636Z,99820.00
2023-09-16T12:48:13.905Z,99814.63
2023-09-16T12:50:18.002Z,99813.84
2023-09-16T12:52:21.634Z,99818.94
2023-09-16T12:54:27.120Z,99816.50
2023-09-16T12:56:31.810Z,99819.25
2023-09-16T12:58:40.859Z,99812.97
2023-09-16T13:00:44.519Z,99807.72
2023-09-16T13:02:47.989Z,99816.59
2023-09-16T13:04:51.347Z,99822.66
2023-09-16T13:06:54.700Z,99819.72
2023-09-16T13:08:57.845Z,99829.59
2023-09-16T13:11:03.010Z,99825.44
2023-09-16T13:13:06.279Z,99824.66
2023-09-16T13:15:15.241Z,99825.47
2023-09-16T13:17:18.829Z,99822.56
2023-09-16T13:19:25.929Z,99817.59
2023-09-16T13:21:33.477Z,99816.25
2023-09-16T13:23:36.458Z,99820.28
2023-09-16T13:25:43.068Z,99820.03
2023-09-16T13:27:54.305Z,99821.09
2023-09-16T13:30:01.766Z,99819.81
2023-09-16T13:32:07.863Z,99820.66
2023-09-16T13:34:11.342Z,99816.53
2023-09-16T13:36:15.386Z,99822.03
2023-09-16T13:38:18.370Z,99826.09
2023-09-16T13:40:25.020Z,99822.00
2023-09-16T13:42:28.379Z,99825.16
2023-09-16T13:44:31.320Z,99827.75
2023-09-16T13:46:35.997Z,99830.22
2023-09-16T13:48:49.865Z,99837.78
2023-09-16T13:50:53.874Z,99837.34
2023-09-16T13:52:57.045Z,99835.63
2023-09-16T13:55:00.213Z,99832.94
2023-09-16T13:57:04.914Z,99830.22
2023-09-16T13:59:08.054Z,99839.47
2023-09-16T14:01:12.534Z,99832.34
2023-09-16T14:03:19.387Z,99836.00
2023-09-16T14:05:22.767Z,99837.38
2023-09-16T14:07:25.976Z,99838.44
2023-09-16T14:09:29.139Z,99839.72
2023-09-16T14:11:32.393Z,99846.47
2023-09-16T14:13:35.966Z,99845.31
2023-09-16T14:15:42.751Z,99840.34
2023-09-16T14:17:45.823Z,99833.31
2023-09-16T14:19:49.003Z,99839.13
2023-09-16T14:21:52.990Z,99831.22
2023-09-16T14:23:56.002Z,99838.63
2023-09-16T14:26:02.535Z,99842.63
2023-09-16T14:28:08.795Z,99838.25
2023-09-16T14:30:12.583Z,99833.53
2023-09-16T14:32:15.648Z,99836.88
2023-09-16T14:34:18.734Z,99835.38
2023-09-16T14:36:22.735Z,99835.88
2023-09-16T14:38:26.287Z,99836.94
2023-09-16T14:40:31.106Z,99834.63
2023-09-16T14:42:34.586Z,99844.72
2023-09-16T14:44:38.083Z,99840.38
2023-09-16T14:46:40.984Z,99835.59
2023-09-16T14:48:43.964Z,99843.59
2023-09-16T14:50:52.949Z,99844.00
2023-09-16T14:52:55.913Z,99848.03
2023-09-16T14:55:00.008Z,99843.22
2023-09-16T14:57:04.341Z,99847.19
2023-09-16T14:59:07.291Z,99849.13
2023-09-16T15:01:10.604Z,99844.72
2023-09-16T15:03:13.902Z,99859.13
2023-09-16T15:05:17.105Z,99855.88
2023-09-16T15:07:22.390Z,99857.03
2023-09-16T15:09:25.573Z,99855.41
2023-09-16T15:11:31.745Z,99847.72
2023-09-16T15:13:34.753Z,99858.09
2023-09-16T15:15:37.734Z,99858.03
2023-09-16T15:17:40.664Z,99858.84
2023-09-16T15:19:45.187Z,99864.41
2023-09-16T15:21:48.227Z,99864.34
2023-09-16T15:23:51.445Z,99869.13
2023-09-16T15:25:54.337Z,99857.94
2023-09-16T15:27:57.333Z,99873.13
2023-09-16T15:30:00.326Z,99872.69
2023-09-16T15:34:09.142Z,99868.28
2023-09-16T15:36:12.662Z,99873.03
2023-09-16T15:38:15.739Z,99865.81
2023-09-16T15:40:18.871Z,99879.38
2023-09-16T15:42:22.917Z,99871.34
2023-09-16T15:44:26.137Z,99878.53
2023-09-16T15:46:28.944Z,99877.31
2023-09-16T15:48:32.091Z,99878.47
2023-09-16T15:50:48.675Z,99886.38
2023-09-16T15:52:51.973Z,99887.81
2023-09-16T15:54:55.005Z,99886.06
2023-09-16T15:56:57.951Z,99887.56
2023-09-16T15:59:01.770Z,99888.63
2023-09-16T16:01:05.067Z,99891.28
2023-09-16T16:03:08.475Z,99887.91
2023-09-16T16:05:12.142Z,99891.72
2023-09-16T16:07:17.143Z,99887.59
2023-09-16T16:09:19.999Z,99890.66
2023-09-16T16:11:22.968Z,99892.13
2023-09-16T16:13:25.935Z,99884.91
2023-09-16T16:15:28.904Z,99895.16
2023-09-16T16:17:31.818Z,99887.94
2023-09-16T16:19:34.890Z,99901.34
2023-09-16T16:21:38.423Z,99904.38
2023-09-16T16:23:41.471Z,99899.03
2023-09-16T16:25:47.608Z,99895.00
2023-09-16T16:27:51.748Z,99908.03
2023-09-16T16:29:54.634Z,99902.78
2023-09-16T16:31:57.607Z,99906.19
2023-09-16T16:34:00.609Z,99898.09
2023-09-16T16:36:08.110Z,99908.03
2023-09-16T16:38:11.189Z,99908.25
2023-09-16T16:40:18.974Z,99896.19
2023-09-16T16:42:22.312Z,99911.22
2023-09-16T16:44:28.325Z,99913.13
2023-09-16T16:46:33.352Z,99914.25
2023-09-16T16:48:36.213Z,99912.56
2023-09-16T16:50:39.003Z,99916.47
2023-09-16T16:52:41.872Z,99913.53
2023-09-16T16:54:44.830Z,99913.09
2023-09-16T16:56:47.760Z,99918.91
2023-09-16T16:58:54.815Z,99919.28
2023-09-16T17:00:58.522Z,99918.31
2023-09-16T17:03:01.439Z,99920.66
2023-09-16T17:05:06.169Z,99920.94
2023-09-16T17:07:09.593Z,99927.63
2023-09-16T17:09:15.360Z,99930.66
2023-09-16T17:11:19.999Z,99925.78
2023-09-16T17:13:22.940Z,99923.72
2023-09-16T17:15:26.519Z,99935.94
2023-09-16T17:17:30.158Z,99921.16
2023-09-16T17:20:05.714Z,99931.00
2023-09-16T17:22:08.811Z,99928.16
2023-09-16T17:24:11.761Z,99928.91
2023-09-16T17:26:14.766Z,99931.69
2023-09-16T17:28:26.068Z,99927.28
2023-09-16T17:30:29.251Z,99931.59
2023-09-16T17:32:32.318Z,99926.94
2023-09-16T17:34:35.073Z,99928.53
2023-09-16T17:36:38.155Z,99930.06
2023-09-16T17:38:40.970Z,99927.28
2023-09-16T17:40:43.668Z,99934.09
2023-09-16T17:42:46.499Z,99924.50
2023-09-16T17:44:49.336Z,99930.81
2023-09-16T17:46:52.370Z,99936.38
2023-09-16T17:48:55.213Z,99933.13
2023-09-16T17:50:59.091Z,99933.50
2023-09-16T17:53:03.013Z,99936.56
2023-09-16T17:55:06.342Z,99931.78
2023-09-16T17:57:09.023Z,99935.31
2023-09-16T17:59:13.287Z,99940.53
2023-09-16T18:01:16.344Z,99934.56
2023-09-16T18:03:19.576Z,99932.53
2023-09-16T18:05:22.723Z,99934.50
2023-09-16T18:07:27.961Z,99934.41
2023-09-16T18:09:31.437Z,99930.47
2023-09-16T18:11:34.209Z,99935.25
2023-09-16T18:13:37.046Z,99932.09
2023-09-16T18:15:39.784Z,99929.59
2023-09-16T18:17:42.585Z,99931.91
2023-09-16T18:19:45.574Z,99933.97
2023-09-16T18:21:48.440Z,99941.44
2023-09-16T18:23:52.346Z,99935.88
2023-09-16T18:25:55.084Z,99934.19
2023-09-16T18:27:57.935Z,99934.88
2023-09-16T18:30:00.826Z,99936.53
2023-09-16T18:32:05.178Z,99939.59
2023-09-16T18:34:08.011Z,99934.81
2023-09-16T18:36:12.071Z,99936.69
2023-09-16T18:38:21.277Z,99933.47
2023-09-16T18:40:24.518Z,99934.56
2023-09-16T18:42:28.490Z,99935.00
2023-09-16T18:44:31.669Z,99929.63
2023-09-16T18:46:34.722Z,99935.59
2023-09-16T18:48:37.783Z,99934.72
2023-09-16T18:50:42.829Z,99927.09
2023-09-16T18:52:46.139Z,99925.78
2023-09-16T18:54:49.036Z,99932.94
2023-09-16T18:56:51.709Z,99930.88
2023-09-16T18:58:54.346Z,99929.25
2023-09-16T19:00:57.828Z,99928.81
2023-09-16T19:03:00.780Z,99931.50
2023-09-16T19:05:04.543Z,99939.31
2023-09-16T19:07:08.267Z,99935.69
2023-09-16T19:09:13.366Z,99932.06
2023-09-16T19:11:23.552Z,99934.28
2023-09-16T19:13:26.618Z,99936.41
2023-09-16T19:15:30.637Z,99941.97
2023-09-16T19:17:33.355Z,99945.81
2023-09-16T19:19:36.986Z,99940.44
2023-09-16T19:21:39.748Z,99941.84
2023-09-16T19:23:43.101Z,99939.34
2023-09-16T19:25:50.993Z,99942.66
2023-09-16T19:27:54.113Z,99943.78
2023-09-16T19:30:01.760Z,99940.81
2023-09-16T19:32:11.703Z,99940.97
2023-09-16T19:34:17.532Z,99942.81
2023-09-16T19:36:21.130Z,99943.41
2023-09-16T19:38:25.046Z,99946.44
2023-09-16T19:40:28.147Z,99949.44
2023-09-16T19:42:34.102Z,99948.56
2023-09-16T19:44:37.435Z,99951.59
2023-09-16T19:46:54.665Z,99947.88
2023-09-16T19:48:59.288Z,99954.47
2023-09-16T19:51:05.414Z,99953.56
2023-09-16T19:53:08.260Z,99944.91
2023-09-16T19:55:11.142Z,99946.75
2023-09-16T19:57:14.370Z,99954.16
2023-09-16T19:59:17.087Z,99949.66
2023-09-16T20:01:19.911Z,99956.69
2023-09-16T20:03:22.705Z,99954.16
2023-09-16T20:05:26.677Z,99953.25
2023-09-16T20:07:29.381Z,99957.53
2023-09-16T20:09:32.045Z,99948.28
2023-09-16T20:11:34.658Z,99955.34
2023-09-16T20:13:38.528Z,99952.09
2023-09-16T20:15:41.297Z,99956.75
2023-09-16T20:17:44.077Z,99957.41
2023-09-16T20:19:54.300Z,99956.84
2023-09-16T20:21:57.430Z,99955.91
2023-09-16T20:24:00.129Z,99954.56
2023-09-16T20:26:02.991Z,99950.06
2023-09-16T20:28:05.905Z,99962.28
2023-09-16T20:30:08.963Z,99952.19
2023-09-16T20:32:12.592Z,99955.19
2023-09-16T20:34:15.405Z,99960.63
2023-09-16T20:36:18.644Z,99956.47
2023-09-16T20:38:21.315Z,99960.25
2023-09-16T20:40:23.985Z,99965.22
2023-09-16T20:42:28.988Z,99960.03
2023-09-16T20:44:31.702Z,99960.72
2023-09-16T20:46:34.696Z,99968.88
2023-09-16T20:48:37.811Z,99962.06
2023-09-16T20:50:41.990Z,99963.56
2023-09-16T20:52:44.725Z,99970.59
2023-09-16T20:54:47.457Z,99968.97
2023-09-16T20:56:50.263Z,99967.38
2023-09-16T20:58:53.583Z,99968.97
2023-09-16T21:00:56.411Z,99973.72
2023-09-16T21:02:59.175Z,99974.50
2023-09-16T21:05:02.036Z,99976.00
2023-09-16T21:07:07.760Z,99972.31
2023-09-16T21:09:11.133Z,99978.41
2023-09-16T21:11:14.004Z,99988.88
2023-09-16T21:13:16.831Z,99975.38
2023-09-16T21:15:19.623Z,99975.72
2023-09-16T21:17:22.488Z,99980.13
2023-09-16T21:19:26.787Z,99984.03
2023-09-16T21:21:29.516Z,99992.22
2023-09-16T21:23:32.516Z,99990.91
2023-09-16T21:25:35.722Z,99975.00
2023-09-16T21:27:38.440Z,99981.22
2023-09-16T21:29:41.174Z,99977.28
2023-09-16T21:31:55.219Z,99983.19
2023-09-16T21:34:02.749Z,99980.94
2023-09-16T21:36:05.655Z,99981.66
2023-09-16T21:38:08.383Z,99992.56
2023-09-16T21:40:11.552Z,99987.25
2023-09-16T21:42:16.720Z,99989.06
2023-09-16T21:44:19.749Z,99987.31
2023-09-16T21:46:22.558Z,99980.81
2023-09-16T21:48:25.421Z,99981.97
2023-09-16T21:50:28.106Z,99982.19
2023-09-16T21:52:31.259Z,99986.06
2023-09-16T21:54:33.974Z,99992.09
2023-09-16T21:56:36.813Z,99985.31
2023-09-16T21:58:39.651Z,99990.38
2023-09-16T22:00:42.412Z,99988.63
2023-09-16T22:02:45.176Z,99994.00
2023-09-16T22:04:47.977Z,99992.72
2023-09-16T22:06:50.666Z,99987.41
2023-09-16T22:08:53.398Z,99992.13
2023-09-16T22:10:59.299Z,99987.72
2023-09-16T22:13:02.879Z,99991.16
2023-09-16T22:15:05.876Z,99997.00
2023-09-16T22:17:09.293Z,100009.88
2023-09-16T22:19:13.105Z,100005.19
2023-09-16T22:21:16.405Z,100003.53
2023-09-16T22:23:19.428Z,100003.25
2023-09-16T22:25:22.995Z,99999.22
2023-09-16T22:27:26.592Z,99994.34
2023-09-16T22:29:29.314Z,100002.50
2023-09-16T22:31:32.303Z,100005.44
2023-09-16T22:33:36.567Z,100001.88
2023-09-16T22:35:42.118Z,100002.19
2023-09-16T22:37:45.096Z,99997.03
2023-09-16T22:39:56.689Z,100004.00
2023-09-16T22:42:00.210Z,100007.75
2023-09-16T22:44:02.937Z,100003.69
2023-09-16T22:46:05.816Z,100006.00
2023-09-16T22:48:09.316Z,100010.56
2023-09-16T22:50:12.037Z,100002.59
2023-09-16T22:52:14.628Z,100009.13
2023-09-16T22:54:17.297Z,100005.41
2023-09-16T22:56:19.976Z,100001.22
2023-09-16T22:58:22.729Z,100007.22
2023-09-16T23:00:25.482Z,100005.75
2023-09-16T23:02:28.259Z,100009.19
2023-09-16T23:04:31.177Z,100006.75
2023-09-16T23:06:33.945Z,100011.94
2023-09-16T23:08:36.625Z,100015.34
2023-09-16T23:10:39.382Z,100009.69
2023-09-16T23:12:42.122Z,100006.94
2023-09-16T23:14:44.904Z,100015.88
2023-09-16T23:16:47.760Z,100008.59
2023-09-16T23:18:50.444Z,100018.66
2023-09-16T23:20:59.796Z,100016.88
2023-09-16T23:23:02.625Z,100020.25
2023-09-16T23:25:06.676Z,100013.47
2023-09-16T23:27:09.448Z,100012.47
2023-09-16T23:29:12.164Z,100015.91
2023-09-16T23:31:15.148Z,100018.00
2023-09-16T23:33:19.440Z,100012.81
2023-09-16T23:35:22.034Z,100011.50
2023-09-16T23:37:24.736Z,100012.34
2023-09-16T23:39:28.043Z,100016.56
2023-09-16T23:41:30.709Z,100010.38
2023-09-16T23:43:33.540Z,100019.16
2023-09-16T23:45:39.202Z,100019.47
2023-09-16T23:47:41.840Z,100018.34
2023-09-16T23:49:45.148Z,100023.19
2023-09-16T23:51:48.048Z,100024.34
2023-09-16T23:53:50.985Z,100028.72
2023-09-16T23:55:53.917Z,100026.78
2023-09-16T23:57:56.554Z,100021.28
2023-09-16T23:59:59.252Z,100028.25
